createdAt,value
2022-08-14T00:00:45.545Z,21.90
2022-08-14T00:03:29.294Z,21.90
2022-08-14T00:06:01.634Z,21.80
2022-08-14T00:08:44.766Z,21.90
2022-08-14T00:11:14.679Z,21.80
2022-08-14T00:13:52.439Z,21.80
2022-08-14T00:16:41.070Z,21.80
2022-08-14T00:19:19.574Z,21.70
2022-08-14T00:21:52.114Z,21.80
2022-08-14T00:24:30.874Z,21.70
2022-08-14T00:27:02.357Z,21.70
2022-08-14T00:29:40.283Z,21.70
2022-08-14T00:32:50.263Z,21.60
2022-08-14T00:35:04.548Z,21.50
2022-08-14T00:37:34.465Z,21.50
2022-08-14T00:40:27.334Z,21.50
2022-08-14T00:42:56.615Z,21.50
2022-08-14T00:45:30.650Z,21.50
2022-08-14T00:48:00.488Z,21.40
2022-08-14T00:50:31.936Z,21.40
2022-08-14T00:53:02.861Z,21.30
2022-08-14T00:55:32.275Z,21.30
2022-08-14T00:58:27.810Z,21.30
2022-08-14T01:01:05.236Z,21.30
2022-08-14T01:03:38.102Z,21.30
2022-08-14T01:06:11.264Z,21.30
2022-08-14T01:08:51.335Z,21.30
2022-08-14T01:11:35.247Z,21.30
2022-08-14T01:14:27.477Z,21.20
2022-08-14T01:16:55.733Z,21.20
2022-08-14T01:19:43.742Z,21.20
2022-08-14T01:22:18.454Z,21.30
2022-08-14T01:24:50.882Z,21.30
2022-08-14T01:27:25.031Z,21.30
2022-08-14T01:29:59.217Z,21.40
2022-08-14T01:32:37.531Z,21.50
2022-08-14T01:35:17.750Z,21.50
2022-08-14T01:38:05.933Z,21.60
2022-08-14T01:40:40.746Z,21.60
2022-08-14T01:43:18.849Z,21.60
2022-08-14T01:45:57.818Z,21.60
2022-08-14T01:48:37.072Z,21.50
2022-08-14T01:51:19.013Z,21.50
2022-08-14T01:53:55.789Z,21.50
2022-08-14T01:56:37.399Z,21.40
2022-08-14T01:59:14.627Z,21.40
2022-08-14T02:01:58.591Z,21.40
2022-08-14T02:04:54.953Z,21.30
2022-08-14T02:07:34.930Z,21.30
2022-08-14T02:10:15.610Z,21.40
2022-08-14T02:12:53.976Z,21.30
2022-08-14T02:15:27.052Z,21.20
2022-08-14T02:17:55.948Z,21.30
2022-08-14T02:20:25.352Z,21.30
2022-08-14T02:22:54.686Z,21.30
2022-08-14T02:25:29.907Z,21.30
2022-08-14T02:28:22.590Z,21.20
2022-08-14T02:30:48.517Z,21.10
2022-08-14T02:33:23.431Z,21.10
2022-08-14T02:35:57.891Z,21.10
2022-08-14T02:38:34.903Z,21.20
2022-08-14T02:41:09.043Z,21.20
2022-08-14T02:43:46.306Z,21.20
2022-08-14T02:46:20.500Z,21.20
2022-08-14T02:49:05.389Z,21.20
2022-08-14T02:51:37.048Z,21.20
2022-08-14T02:54:08.408Z,21.20
2022-08-14T02:57:14.292Z,21.30
2022-08-14T02:59:33.837Z,21.30
2022-08-14T03:02:04.422Z,21.20
2022-08-14T03:04:33.691Z,21.20
2022-08-14T03:07:07.373Z,21.10
2022-08-14T03:09:41.961Z,21.10
2022-08-14T03:12:31.907Z,21.20
2022-08-14T03:15:14.325Z,21.20
2022-08-14T03:17:57.119Z,21.20
2022-08-14T03:20:28.904Z,21.20
2022-08-14T03:23:03.209Z,21.20
2022-08-14T03:25:34.345Z,21.40
2022-08-14T03:28:14.717Z,21.40
2022-08-14T03:31:00.785Z,21.30
2022-08-14T03:33:37.715Z,21.30
2022-08-14T03:37:37.493Z,21.20
2022-08-14T03:39:12.192Z,21.20
2022-08-14T03:41:49.442Z,21.20
2022-08-14T03:45:25.403Z,21.20
2022-08-14T03:47:11.646Z,21.20
2022-08-14T03:49:43.168Z,21.10
2022-08-14T03:52:38.655Z,21.20
2022-08-14T03:55:03.825Z,21.20
2022-08-14T03:57:32.578Z,21.20
2022-08-14T04:00:07.610Z,21.20
2022-08-14T04:02:47.155Z,21.20
2022-08-14T04:05:16.451Z,21.10
2022-08-14T04:07:59.980Z,21.10
2022-08-14T04:10:36.506Z,21.20
2022-08-14T04:13:06.618Z,21.30
2022-08-14T04:15:52.694Z,21.30
2022-08-14T04:18:26.544Z,21.30
2022-08-14T04:20:55.976Z,21.20
2022-08-14T04:23:29.358Z,21.30
2022-08-14T04:26:04.501Z,21.30
2022-08-14T04:29:05.294Z,21.30
2022-08-14T04:33:00.756Z,21.30
2022-08-14T04:34:27.303Z,21.40
2022-08-14T04:37:22.062Z,21.40
2022-08-14T04:40:11.613Z,21.40
2022-08-14T04:42:58.600Z,21.40
2022-08-14T04:45:32.898Z,21.50
2022-08-14T04:48:39.838Z,21.60
2022-08-14T04:51:07.118Z,21.50
2022-08-14T04:53:43.981Z,21.60
2022-08-14T04:56:31.133Z,21.60
2022-08-14T04:59:09.595Z,21.50
2022-08-14T05:01:47.620Z,21.50
2022-08-14T05:04:21.181Z,21.50
2022-08-14T05:06:55.748Z,21.60
2022-08-14T05:09:29.078Z,21.60
2022-08-14T05:12:08.575Z,21.80
2022-08-14T05:14:55.087Z,22.00
2022-08-14T05:17:32.220Z,22.20
2022-08-14T05:21:54.377Z,22.40
2022-08-14T05:23:04.680Z,22.60
2022-08-14T05:25:34.430Z,22.70
2022-08-14T05:28:16.250Z,22.90
2022-08-14T05:30:46.389Z,23.00
2022-08-14T05:33:16.166Z,23.20
2022-08-14T05:35:47.959Z,23.40
2022-08-14T05:38:30.532Z,23.50
2022-08-14T05:41:00.268Z,23.70
2022-08-14T05:43:33.018Z,23.70
2022-08-14T05:46:15.679Z,23.80
2022-08-14T05:48:48.887Z,23.90
2022-08-14T05:51:19.876Z,23.80
2022-08-14T05:54:01.454Z,23.80
2022-08-14T05:56:37.863Z,23.90
2022-08-14T05:59:07.414Z,23.90
2022-08-14T06:01:36.663Z,23.90
2022-08-14T06:04:06.173Z,24.00
2022-08-14T06:06:38.288Z,24.10
2022-08-14T06:09:09.791Z,24.20
2022-08-14T06:11:38.971Z,24.30
2022-08-14T06:14:20.650Z,24.30
2022-08-14T06:16:51.975Z,24.40
2022-08-14T06:19:23.182Z,24.70
2022-08-14T06:21:59.351Z,24.70
2022-08-14T06:24:30.501Z,24.70
2022-08-14T06:27:06.448Z,24.80
2022-08-14T06:29:39.976Z,24.80
2022-08-14T06:32:38.634Z,24.90
2022-08-14T06:35:11.274Z,24.90
2022-08-14T06:37:46.923Z,24.80
2022-08-14T06:40:27.284Z,24.90
2022-08-14T06:43:00.545Z,25.10
2022-08-14T06:45:32.658Z,25.20
2022-08-14T06:48:03.561Z,25.40
2022-08-14T06:50:35.476Z,25.40
2022-08-14T06:53:05.691Z,25.40
2022-08-14T06:55:36.925Z,25.50
2022-08-14T06:58:25.088Z,25.50
2022-08-14T07:01:15.399Z,25.60
2022-08-14T07:04:02.320Z,25.50
2022-08-14T07:06:45.716Z,25.50
2022-08-14T07:09:23.060Z,25.50
2022-08-14T07:11:53.022Z,25.50
2022-08-14T07:14:21.790Z,25.80
2022-08-14T07:16:51.035Z,26.00
2022-08-14T07:19:21.147Z,26.10
2022-08-14T07:21:50.494Z,26.20
2022-08-14T07:24:21.723Z,26.20
2022-08-14T07:26:55.183Z,26.20
2022-08-14T07:29:26.180Z,26.00
2022-08-14T07:31:57.656Z,26.10
2022-08-14T07:34:40.622Z,26.10
2022-08-14T07:37:11.238Z,26.30
2022-08-14T07:39:43.489Z,26.40
2022-08-14T07:42:12.983Z,26.50
2022-08-14T07:44:46.240Z,26.60
2022-08-14T07:47:19.437Z,26.80
2022-08-14T07:50:03.026Z,26.80
2022-08-14T07:52:32.172Z,27.00
2022-08-14T07:55:03.328Z,27.00
2022-08-14T07:57:32.408Z,27.20
2022-08-14T08:00:01.559Z,27.30
2022-08-14T08:02:44.224Z,27.30
2022-08-14T08:05:16.443Z,27.40
2022-08-14T08:07:47.892Z,27.50
2022-08-14T08:11:01.309Z,27.70
2022-08-14T08:13:24.091Z,27.80
2022-08-14T08:15:58.300Z,27.80
2022-08-14T08:18:29.444Z,27.60
2022-08-14T08:21:00.211Z,27.60
2022-08-14T08:23:40.855Z,27.70
2022-08-14T08:26:21.240Z,27.80
2022-08-14T08:28:59.170Z,27.70
2022-08-14T08:31:32.947Z,27.90
2022-08-14T08:34:07.528Z,28.10
2022-08-14T08:36:46.661Z,28.30
2022-08-14T08:39:22.513Z,28.20
2022-08-14T08:41:54.084Z,28.40
2022-08-14T08:44:32.747Z,28.60
2022-08-14T08:47:06.538Z,28.60
2022-08-14T08:49:52.928Z,28.70
2022-08-14T08:52:42.313Z,28.80
2022-08-14T08:55:15.717Z,28.90
2022-08-14T08:57:45.934Z,28.80
2022-08-14T09:00:25.698Z,28.80
2022-08-14T09:02:57.763Z,28.90
2022-08-14T09:05:28.980Z,29.00
2022-08-14T09:08:30.560Z,28.90
2022-08-14T09:11:19.989Z,28.90
2022-08-14T09:13:55.647Z,29.00
2022-08-14T09:16:26.571Z,29.20
2022-08-14T09:18:55.999Z,29.30
2022-08-14T09:21:31.251Z,29.30
2022-08-14T09:24:28.093Z,29.20
2022-08-14T09:26:51.931Z,29.10
2022-08-14T09:29:23.739Z,29.30
2022-08-14T09:32:10.132Z,29.20
2022-08-14T09:35:13.954Z,29.50
2022-08-14T09:38:00.030Z,29.50
2022-08-14T09:40:49.301Z,29.60
2022-08-14T09:43:32.083Z,29.80
2022-08-14T09:46:08.894Z,30.00
2022-08-14T09:48:39.815Z,30.00
2022-08-14T09:51:25.441Z,30.10
2022-08-14T09:54:17.693Z,30.10
2022-08-14T09:56:57.315Z,30.40
2022-08-14T09:59:32.278Z,30.60
2022-08-14T10:02:07.946Z,30.50
2022-08-14T10:04:41.227Z,30.50
2022-08-14T10:07:14.901Z,30.40
2022-08-14T10:09:59.943Z,30.40
2022-08-14T10:12:50.162Z,30.40
2022-08-14T10:15:27.877Z,30.40
2022-08-14T10:18:17.691Z,30.50
2022-08-14T10:21:02.171Z,30.50
2022-08-14T10:23:45.484Z,30.70
2022-08-14T10:26:22.803Z,30.90
2022-08-14T10:29:18.790Z,31.00
2022-08-14T10:31:59.372Z,31.00
2022-08-14T10:34:36.758Z,30.80
2022-08-14T10:37:14.607Z,30.70
2022-08-14T10:39:51.382Z,30.70
2022-08-14T10:42:38.357Z,30.80
2022-08-14T10:45:21.936Z,31.10
2022-08-14T10:48:08.890Z,31.00
2022-08-14T10:50:51.660Z,31.20
2022-08-14T10:53:35.821Z,31.20
2022-08-14T10:56:22.113Z,31.10
2022-08-14T10:59:05.007Z,30.80
2022-08-14T11:01:41.121Z,31.00
2022-08-14T11:04:30.251Z,31.20
2022-08-14T11:07:01.445Z,31.20
2022-08-14T11:09:31.703Z,30.90
2022-08-14T11:12:34.071Z,30.90
2022-08-14T11:15:02.148Z,31.00
2022-08-14T11:17:33.290Z,31.10
2022-08-14T11:20:06.364Z,31.20
2022-08-14T11:23:03.081Z,31.10
2022-08-14T11:25:43.362Z,31.10
2022-08-14T11:28:19.565Z,31.30
2022-08-14T11:31:12.767Z,31.50
2022-08-14T11:33:42.207Z,31.40
2022-08-14T11:36:18.179Z,31.40
2022-08-14T11:38:49.492Z,31.30
2022-08-14T11:41:25.359Z,31.30
2022-08-14T11:43:57.866Z,31.40
2022-08-14T11:46:37.397Z,31.50
2022-08-14T11:49:09.503Z,31.40
2022-08-14T11:51:53.401Z,31.30
2022-08-14T11:54:34.282Z,31.00
2022-08-14T11:57:05.743Z,31.10
2022-08-14T11:59:35.169Z,31.40
2022-08-14T12:03:01.730Z,31.80
2022-08-14T12:05:09.361Z,31.90
2022-08-14T12:07:49.812Z,31.70
2022-08-14T12:10:26.954Z,31.50
2022-08-14T12:13:17.485Z,31.30
2022-08-14T12:15:51.520Z,31.30
2022-08-14T12:18:32.749Z,31.30
2022-08-14T12:21:15.840Z,31.30
2022-08-14T12:24:01.996Z,31.10
2022-08-14T12:26:40.879Z,31.20
2022-08-14T12:29:13.913Z,31.10
2022-08-14T12:31:47.048Z,31.20
2022-08-14T12:34:20.303Z,31.20
2022-08-14T12:36:49.780Z,31.40
2022-08-14T12:39:24.673Z,31.60
2022-08-14T12:42:06.646Z,31.60
2022-08-14T12:44:39.259Z,31.60
2022-08-14T12:47:17.027Z,31.60
2022-08-14T12:49:53.512Z,31.80
2022-08-14T12:52:43.197Z,31.80
2022-08-14T12:55:21.862Z,31.90
2022-08-14T12:57:55.533Z,32.10
2022-08-14T13:00:26.306Z,32.10
2022-08-14T13:02:57.531Z,32.10
2022-08-14T13:05:30.312Z,32.40
2022-08-14T13:08:03.771Z,32.50
2022-08-14T13:10:51.183Z,32.40
2022-08-14T13:13:23.816Z,32.60
2022-08-14T13:15:59.770Z,32.60
2022-08-14T13:18:31.457Z,32.50
2022-08-14T13:21:05.790Z,32.30
2022-08-14T13:23:37.376Z,32.40
2022-08-14T13:26:08.619Z,32.70
2022-08-14T13:29:02.410Z,32.70
2022-08-14T13:31:34.784Z,32.30
2022-08-14T13:34:04.698Z,31.90
2022-08-14T13:36:54.500Z,31.50
2022-08-14T13:39:26.936Z,31.40
2022-08-14T13:41:57.681Z,31.40
2022-08-14T13:44:29.071Z,31.40
2022-08-14T13:46:58.715Z,31.50
2022-08-14T13:49:29.239Z,31.60
2022-08-14T13:52:04.350Z,31.50
2022-08-14T13:55:01.237Z,31.50
2022-08-14T13:57:33.661Z,31.30
2022-08-14T14:00:10.201Z,31.20
2022-08-14T14:02:45.833Z,31.20
2022-08-14T14:05:18.850Z,31.20
2022-08-14T14:07:54.504Z,31.20
2022-08-14T14:10:28.457Z,31.60
2022-08-14T14:12:57.872Z,31.80
2022-08-14T14:15:48.428Z,31.90
2022-08-14T14:18:34.549Z,32.00
2022-08-14T14:21:06.581Z,32.00
2022-08-14T14:23:39.073Z,32.00
2022-08-14T14:26:13.745Z,32.10
2022-08-14T14:28:50.613Z,32.30
2022-08-14T14:31:30.257Z,32.20
2022-08-14T14:34:07.542Z,32.40
2022-08-14T14:36:55.432Z,32.50
2022-08-14T14:39:28.815Z,32.50
2022-08-14T14:42:05.351Z,32.50
2022-08-14T14:44:41.387Z,32.50
2022-08-14T14:47:15.567Z,32.40
2022-08-14T14:49:54.749Z,32.50
2022-08-14T14:52:27.575Z,32.70
2022-08-14T14:54:59.038Z,32.70
2022-08-14T14:57:35.258Z,32.50
2022-08-14T15:00:12.625Z,32.40
2022-08-14T15:02:46.549Z,32.40
2022-08-14T15:05:19.093Z,32.30
2022-08-14T15:07:52.883Z,32.30
2022-08-14T15:10:27.532Z,32.20
2022-08-14T15:13:03.431Z,32.30
2022-08-14T15:15:33.658Z,32.30
2022-08-14T15:18:36.365Z,32.30
2022-08-14T15:20:59.595Z,32.20
2022-08-14T15:23:32.540Z,32.20
2022-08-14T15:26:31.269Z,32.40
2022-08-14T15:29:05.653Z,32.40
2022-08-14T15:31:37.528Z,32.40
2022-08-14T15:34:43.570Z,32.40
2022-08-14T15:37:02.239Z,32.40
2022-08-14T15:39:35.497Z,32.50
2022-08-14T15:42:16.330Z,32.40
2022-08-14T15:44:57.433Z,32.40
2022-08-14T15:47:29.722Z,32.30
2022-08-14T15:50:02.937Z,32.20
2022-08-14T15:52:34.789Z,32.20
2022-08-14T15:55:08.581Z,32.10
2022-08-14T15:58:01.437Z,32.20
2022-08-14T16:00:50.223Z,32.20
2022-08-14T16:03:27.582Z,32.20
2022-08-14T16:06:10.576Z,32.10
2022-08-14T16:08:46.208Z,32.10
2022-08-14T16:11:19.593Z,32.00
2022-08-14T16:13:49.252Z,32.10
2022-08-14T16:16:49.767Z,32.00
2022-08-14T16:19:11.337Z,31.90
2022-08-14T16:22:01.426Z,31.80
2022-08-14T16:24:57.758Z,31.70
2022-08-14T16:27:37.196Z,31.70
2022-08-14T16:30:24.571Z,31.70
2022-08-14T16:32:59.079Z,31.70
2022-08-14T16:35:43.053Z,31.70
2022-08-14T16:38:46.260Z,31.70
2022-08-14T16:41:23.255Z,31.80
2022-08-14T16:43:59.261Z,31.80
2022-08-14T16:46:32.846Z,31.90
2022-08-14T16:49:03.031Z,31.90
2022-08-14T16:51:36.535Z,31.90
2022-08-14T16:54:21.079Z,31.90
2022-08-14T16:57:17.300Z,32.00
2022-08-14T16:59:57.091Z,32.40
2022-08-14T17:02:45.140Z,32.60
2022-08-14T17:05:21.998Z,32.70
2022-08-14T17:08:41.689Z,32.80
2022-08-14T17:11:11.104Z,32.90
2022-08-14T17:13:57.882Z,32.90
2022-08-14T17:16:37.207Z,32.70
2022-08-14T17:19:14.387Z,32.50
2022-08-14T17:21:47.050Z,32.20
2022-08-14T17:24:57.895Z,31.90
2022-08-14T17:27:11.529Z,31.90
2022-08-14T17:29:57.627Z,31.70
2022-08-14T17:32:55.885Z,31.40
2022-08-14T17:35:57.380Z,31.10
2022-08-14T17:41:27.149Z,30.60
2022-08-14T17:44:21.475Z,30.40
2022-08-14T17:46:55.319Z,30.20
2022-08-14T17:49:31.970Z,30.10
2022-08-14T17:52:16.663Z,30.10
2022-08-14T17:54:58.856Z,29.90
2022-08-14T17:57:35.182Z,29.80
2022-08-14T18:00:19.520Z,29.80
2022-08-14T18:02:51.081Z,29.70
2022-08-14T18:06:07.791Z,29.60
2022-08-14T18:08:31.967Z,29.50
2022-08-14T18:11:03.359Z,29.40
2022-08-14T18:13:50.908Z,29.30
2022-08-14T18:16:23.041Z,29.20
2022-08-14T18:18:53.119Z,29.20
2022-08-14T18:21:56.139Z,29.10
2022-08-14T18:24:20.201Z,29.10
2022-08-14T18:27:08.748Z,29.10
2022-08-14T18:29:54.634Z,29.00
2022-08-14T18:32:55.300Z,28.90
2022-08-14T18:35:45.598Z,28.80
2022-08-14T18:38:45.902Z,28.70
2022-08-14T18:41:37.154Z,28.60
2022-08-14T18:44:10.446Z,28.50
2022-08-14T18:47:23.153Z,28.40
2022-08-14T18:50:26.128Z,28.40
2022-08-14T18:53:09.205Z,28.30
2022-08-14T18:55:53.822Z,28.30
2022-08-14T18:58:28.058Z,28.30
2022-08-14T19:01:02.051Z,28.30
2022-08-14T19:03:48.572Z,28.20
2022-08-14T19:06:18.817Z,28.30
2022-08-14T19:08:50.474Z,28.30
2022-08-14T19:11:51.479Z,28.30
2022-08-14T19:14:48.469Z,28.30
2022-08-14T19:18:10.658Z,28.20
2022-08-14T19:20:52.852Z,28.10
2022-08-14T19:23:42.218Z,28.10
2022-08-14T19:26:34.181Z,28.10
2022-08-14T19:29:36.058Z,28.10
2022-08-14T19:32:40.882Z,28.10
2022-08-14T19:35:55.006Z,28.10
2022-08-14T19:38:57.523Z,28.00
2022-08-14T19:41:34.080Z,27.90
2022-08-14T19:44:19.050Z,27.90
2022-08-14T19:47:00.017Z,27.80
2022-08-14T19:50:30.204Z,27.70
2022-08-14T19:52:35.314Z,27.70
2022-08-14T19:55:19.776Z,27.60
2022-08-14T19:57:58.008Z,27.60
2022-08-14T20:00:30.468Z,27.50
2022-08-14T20:03:10.145Z,27.50
2022-08-14T20:05:42.862Z,27.40
2022-08-14T20:09:05.924Z,27.40
2022-08-14T20:11:42.935Z,27.30
2022-08-14T20:14:09.507Z,27.20
2022-08-14T20:16:43.359Z,27.10
2022-08-14T20:19:20.055Z,27.10
2022-08-14T20:22:00.677Z,27.00
2022-08-14T20:24:45.279Z,26.90
2022-08-14T20:27:39.509Z,26.70
2022-08-14T20:30:29.660Z,26.70
2022-08-14T20:33:07.447Z,26.60
2022-08-14T20:35:42.762Z,26.50
2022-08-14T20:38:29.867Z,26.50
2022-08-14T20:41:06.840Z,26.50
2022-08-14T20:44:02.722Z,26.40
2022-08-14T20:46:39.571Z,26.30
2022-08-14T20:49:16.218Z,26.30
2022-08-14T20:51:58.391Z,26.10
2022-08-14T20:54:33.773Z,26.10
2022-08-14T20:57:09.308Z,26.10
2022-08-14T20:59:45.004Z,26.00
2022-08-14T21:02:46.802Z,25.90
2022-08-14T21:05:34.264Z,25.90
2022-08-14T21:08:09.955Z,25.90
2022-08-14T21:10:54.954Z,25.80
2022-08-14T21:14:19.706Z,25.80
2022-08-14T21:16:33.493Z,25.80
2022-08-14T21:19:08.592Z,25.90
2022-08-14T21:21:42.296Z,25.80
2022-08-14T21:24:40.183Z,25.90
2022-08-14T21:27:12.956Z,25.80
2022-08-14T21:29:53.866Z,25.80
2022-08-14T21:32:50.092Z,25.80
2022-08-14T21:35:22.921Z,25.70
2022-08-14T21:37:53.929Z,25.70
2022-08-14T21:40:41.573Z,25.80
2022-08-14T21:43:17.799Z,25.80
2022-08-14T21:45:53.450Z,25.70
2022-08-14T21:48:25.006Z,25.80
2022-08-14T21:51:02.237Z,25.70
2022-08-14T21:53:57.981Z,25.70
2022-08-14T21:56:38.913Z,25.70
2022-08-14T21:59:17.736Z,25.60
2022-08-14T22:02:01.946Z,25.60
2022-08-14T22:04:40.409Z,25.50
2022-08-14T22:07:17.344Z,25.40
2022-08-14T22:09:55.184Z,25.40
2022-08-14T22:12:45.338Z,25.40
2022-08-14T22:15:19.289Z,25.30
2022-08-14T22:17:54.202Z,25.20
2022-08-14T22:20:28.614Z,25.20
2022-08-14T22:23:02.993Z,25.10
2022-08-14T22:25:33.855Z,25.20
2022-08-14T22:28:05.983Z,25.10
2022-08-14T22:30:36.953Z,25.10
2022-08-14T22:33:10.150Z,25.00
2022-08-14T22:35:43.179Z,25.00
2022-08-14T22:38:35.406Z,24.90
2022-08-14T22:41:25.947Z,24.90
2022-08-14T22:43:56.626Z,24.80
2022-08-14T22:46:28.194Z,24.80
2022-08-14T22:48:58.012Z,24.70
2022-08-14T22:51:27.863Z,24.60
2022-08-14T22:54:00.245Z,24.60
2022-08-14T22:56:30.848Z,24.60
2022-08-14T22:59:02.697Z,24.50
2022-08-14T23:01:56.313Z,24.50
2022-08-14T23:04:54.009Z,24.40
2022-08-14T23:07:25.060Z,24.40
2022-08-14T23:10:32.640Z,24.30
2022-08-14T23:12:54.411Z,24.30
2022-08-14T23:15:29.957Z,24.30
2022-08-14T23:17:59.491Z,24.20
2022-08-14T23:20:29.883Z,24.10
2022-08-14T23:22:59.455Z,24.10
2022-08-14T23:25:57.558Z,24.10
2022-08-14T23:28:33.634Z,24.00
2022-08-14T23:31:34.360Z,24.00
2022-08-14T23:34:07.193Z,23.90
2022-08-14T23:36:54.601Z,23.90
2022-08-14T23:39:32.615Z,23.80
2022-08-14T23:42:09.872Z,23.80
2022-08-14T23:44:40.850Z,23.70
2022-08-14T23:47:26.873Z,23.70
2022-08-14T23:50:00.748Z,23.60
2022-08-14T23:52:51.094Z,23.60
2022-08-14T23:55:32.041Z,23.50
2022-08-14T23:58:02.855Z,23.40
